Caledonia, Mississippi
Current Conditions -  °F | °C
As of 9:18 AM on Monday 24 Nov 2014 (Local Time) from KCBM Reporting Station
Overcast Overcast  
Wind Chill: 57°   Ceiling: 2900
Heat Index: 57°   Visibility: 10mi
Dew Point: 46°   Wind: 9mph
Humidity: 67%   Direction: 270°W
Pressure: 29.87"   Gusts: NA
Location:  33.68°N, 88.32°W
Report Text: KCBM 241518Z AUTO 27008KT 10SM OVC029 14/08 A2987 RMK AO2 $
Loading
Personal Weather Stations






























Interactive Weather Map New forecast layout! Learn more

10-Day Weather Forecast

Advertisements
Track Severe Weather on mobile